createdAt,value
2017-12-28T00:00:02.252Z,10.20
2017-12-28T00:02:30.251Z,8.03
2017-12-28T00:04:58.225Z,9.33
2017-12-28T00:07:26.740Z,13.68
2017-12-28T00:09:54.586Z,9.23
2017-12-28T00:12:22.469Z,8.67
2017-12-28T00:14:50.268Z,10.80
2017-12-28T00:17:18.075Z,9.27
2017-12-28T00:19:45.860Z,13.97
2017-12-28T00:22:13.658Z,9.93
2017-12-28T00:24:41.443Z,11.70
2017-12-28T00:27:10.077Z,13.73
2017-12-28T00:29:37.887Z,7.83
2017-12-28T00:32:05.857Z,9.50
2017-12-28T00:34:34.411Z,14.13
2017-12-28T00:37:02.187Z,12.70
2017-12-28T00:39:29.987Z,10.90
2017-12-28T00:41:58.591Z,12.73
2017-12-28T00:44:26.379Z,12.20
2017-12-28T00:46:54.218Z,10.07
2017-12-28T00:49:22.056Z,18.17
2017-12-28T00:51:50.602Z,9.90
2017-12-28T00:54:18.475Z,6.30
2017-12-28T00:56:46.355Z,9.13
2017-12-28T00:59:14.124Z,6.37
2017-12-28T01:01:41.912Z,5.17
2017-12-28T01:04:10.454Z,8.37
2017-12-28T01:06:38.320Z,10.40
2017-12-28T01:09:06.166Z,8.30
2017-12-28T01:11:33.931Z,7.73
2017-12-28T01:14:01.716Z,9.33
2017-12-28T01:16:29.494Z,13.13
2017-12-28T01:18:57.288Z,6.60
2017-12-28T01:21:25.117Z,4.50
2017-12-28T01:23:53.015Z,6.60
2017-12-28T01:26:20.804Z,7.73
2017-12-28T01:28:48.690Z,6.73
2017-12-28T01:31:16.519Z,6.83
2017-12-28T01:33:44.387Z,5.90
2017-12-28T01:36:12.395Z,9.97
2017-12-28T01:38:40.207Z,7.57
2017-12-28T01:41:08.801Z,5.97
2017-12-28T01:43:36.671Z,7.33
2017-12-28T01:46:04.512Z,10.50
2017-12-28T01:48:33.136Z,6.00
2017-12-28T01:51:00.970Z,9.43
2017-12-28T01:53:29.590Z,6.03
2017-12-28T01:55:57.531Z,9.60
2017-12-28T01:58:26.112Z,7.17
2017-12-28T02:00:54.676Z,9.00
2017-12-28T02:03:23.247Z,6.87
2017-12-28T02:05:51.029Z,11.80
2017-12-28T02:08:19.596Z,7.77
2017-12-28T02:10:47.469Z,9.50
2017-12-28T02:13:16.051Z,7.27
2017-12-28T02:15:43.832Z,17.60
2017-12-28T02:18:12.399Z,8.60
2017-12-28T02:20:40.183Z,5.30
2017-12-28T02:23:08.769Z,8.90
2017-12-28T02:25:36.644Z,8.27
2017-12-28T02:28:04.435Z,19.80
2017-12-28T02:30:32.288Z,10.43
2017-12-28T02:33:00.126Z,10.20
2017-12-28T02:35:28.021Z,9.63
2017-12-28T02:37:55.803Z,16.23
2017-12-28T02:40:23.597Z,14.13
2017-12-28T02:42:51.412Z,12.83
2017-12-28T02:45:19.201Z,14.33
2017-12-28T02:47:47.038Z,13.80
2017-12-28T02:50:14.849Z,5.53
2017-12-28T02:52:42.659Z,17.03
2017-12-28T02:55:10.489Z,14.63
2017-12-28T02:57:38.284Z,19.10
2017-12-28T03:00:07.143Z,24.37
2017-12-28T03:02:34.991Z,11.10
2017-12-28T03:05:02.836Z,16.73
2017-12-28T03:07:30.700Z,14.50
2017-12-28T03:09:58.504Z,17.60
2017-12-28T03:12:26.319Z,7.57
2017-12-28T03:14:54.107Z,9.30
2017-12-28T03:17:21.998Z,23.13
2017-12-28T03:19:49.887Z,13.47
2017-12-28T03:22:17.696Z,12.77
2017-12-28T03:24:45.495Z,12.10
2017-12-28T03:27:13.393Z,22.77
2017-12-28T03:29:41.254Z,22.23
2017-12-28T03:32:09.821Z,17.25
2017-12-28T03:34:38.420Z,12.60
2017-12-28T03:37:06.981Z,21.13
2017-12-28T03:39:34.813Z,20.60
2017-12-28T03:42:02.672Z,20.17
2017-12-28T03:44:30.576Z,13.03
2017-12-28T03:46:58.460Z,10.57
2017-12-28T03:49:27.027Z,23.17
2017-12-28T03:51:54.896Z,13.93
2017-12-28T03:54:22.717Z,19.83
2017-12-28T03:56:50.515Z,20.23
2017-12-28T03:59:18.312Z,18.67
2017-12-28T04:01:46.198Z,14.87
2017-12-28T04:04:14.001Z,12.10
2017-12-28T04:06:41.823Z,18.03
2017-12-28T04:09:09.734Z,20.30
2017-12-28T04:11:38.323Z,14.37
2017-12-28T04:14:06.198Z,22.10
2017-12-28T04:16:34.000Z,11.73
2017-12-28T04:19:01.817Z,16.30
2017-12-28T04:21:29.628Z,20.80
2017-12-28T04:23:57.518Z,14.07
2017-12-28T04:26:25.307Z,8.73
2017-12-28T04:28:53.083Z,12.27
2017-12-28T04:31:20.887Z,16.33
2017-12-28T04:33:49.519Z,15.87
2017-12-28T04:36:17.324Z,19.67
2017-12-28T04:38:45.907Z,21.58
2017-12-28T04:41:14.447Z,12.37
2017-12-28T04:43:42.291Z,17.30
2017-12-28T04:46:10.218Z,15.03
2017-12-28T04:48:38.812Z,13.43
2017-12-28T04:51:07.388Z,18.83
2017-12-28T04:53:35.329Z,14.20
2017-12-28T04:56:03.230Z,15.03
2017-12-28T04:58:31.825Z,12.60
2017-12-28T05:00:59.657Z,19.80
2017-12-28T05:03:28.238Z,13.07
2017-12-28T05:05:56.053Z,11.37
2017-12-28T05:08:23.889Z,13.00
2017-12-28T05:10:52.536Z,9.27
2017-12-28T05:13:21.137Z,10.43
2017-12-28T05:15:48.963Z,11.93
2017-12-28T05:18:16.798Z,11.27
2017-12-28T05:20:44.654Z,13.60
2017-12-28T05:23:13.232Z,16.57
2017-12-28T05:25:41.775Z,13.90
2017-12-28T05:28:09.582Z,9.57
2017-12-28T05:30:38.176Z,9.57
2017-12-28T05:33:05.965Z,12.37
2017-12-28T05:35:33.810Z,12.23
2017-12-28T05:38:01.624Z,9.80
2017-12-28T05:40:29.440Z,11.33
2017-12-28T05:42:57.384Z,20.83
2017-12-28T05:45:25.209Z,13.50
2017-12-28T05:47:53.004Z,5.53
2017-12-28T05:50:20.780Z,9.93
2017-12-28T05:52:48.592Z,11.30
2017-12-28T05:55:16.438Z,14.93
2017-12-28T05:57:44.232Z,11.50
2017-12-28T06:00:12.037Z,15.90
2017-12-28T06:02:40.600Z,12.93
2017-12-28T06:05:08.499Z,22.80
2017-12-28T06:07:37.108Z,16.77
2017-12-28T06:10:04.919Z,25.37
2017-12-28T06:12:32.712Z,19.57
2017-12-28T06:15:00.579Z,17.17
2017-12-28T06:17:29.176Z,18.03
2017-12-28T06:19:56.983Z,15.60
2017-12-28T06:22:24.799Z,19.50
2017-12-28T06:24:52.639Z,21.53
2017-12-28T06:27:20.593Z,20.13
2017-12-28T06:29:48.370Z,27.73
2017-12-28T06:32:17.011Z,18.27
2017-12-28T06:34:44.855Z,19.57
2017-12-28T06:37:12.739Z,22.83
2017-12-28T06:39:40.528Z,26.53
2017-12-28T06:42:08.413Z,18.43
2017-12-28T06:44:36.218Z,16.30
2017-12-28T06:47:04.016Z,25.70
2017-12-28T06:49:31.811Z,30.77
2017-12-28T06:51:59.688Z,30.97
2017-12-28T06:54:28.308Z,20.20
2017-12-28T06:56:56.120Z,16.43
2017-12-28T06:59:23.923Z,27.33
2017-12-28T07:01:51.725Z,16.53
2017-12-28T07:04:19.593Z,16.50
2017-12-28T07:06:47.415Z,20.13
2017-12-28T07:09:15.249Z,16.30
2017-12-28T07:11:43.060Z,22.43
2017-12-28T07:14:10.871Z,24.73
2017-12-28T07:16:38.827Z,17.67
2017-12-28T07:19:06.723Z,24.73
2017-12-28T07:21:34.587Z,23.63
2017-12-28T07:24:02.555Z,12.63
2017-12-28T07:26:31.142Z,25.70
2017-12-28T07:28:59.004Z,13.27
2017-12-28T07:31:26.837Z,12.13
2017-12-28T07:33:54.767Z,16.73
2017-12-28T07:36:22.556Z,16.40
2017-12-28T07:38:50.424Z,20.43
2017-12-28T07:41:18.288Z,18.33
2017-12-28T07:43:46.071Z,39.83
2017-12-28T07:46:13.919Z,24.47
2017-12-28T07:48:41.710Z,18.80
2017-12-28T07:51:09.492Z,18.40
2017-12-28T07:53:38.108Z,16.10
2017-12-28T07:56:05.891Z,17.37
2017-12-28T07:58:33.804Z,24.90
2017-12-28T08:01:01.612Z,21.20
2017-12-28T08:03:29.426Z,17.87
2017-12-28T08:05:57.307Z,12.80
2017-12-28T08:08:25.183Z,21.30
2017-12-28T08:10:53.100Z,8.10
2017-12-28T08:13:20.971Z,13.77
2017-12-28T08:15:48.793Z,16.30
2017-12-28T08:18:16.600Z,14.47
2017-12-28T08:20:44.415Z,20.60
2017-12-28T08:23:12.303Z,14.03
2017-12-28T08:25:40.184Z,20.70
2017-12-28T08:28:08.000Z,21.17
2017-12-28T08:30:36.598Z,19.43
2017-12-28T08:33:04.458Z,18.83
2017-12-28T08:35:32.262Z,12.60
2017-12-28T08:38:00.096Z,19.93
2017-12-28T08:40:28.728Z,15.50
2017-12-28T08:42:56.543Z,18.67
2017-12-28T08:45:24.467Z,15.33
2017-12-28T08:47:52.289Z,22.23
2017-12-28T08:50:20.184Z,11.57
2017-12-28T08:52:47.968Z,26.57
2017-12-28T08:55:15.850Z,22.97
2017-12-28T08:57:43.742Z,18.97
2017-12-28T09:00:12.347Z,17.43
2017-12-28T09:02:40.256Z,20.70
2017-12-28T09:05:08.044Z,16.23
2017-12-28T09:07:36.632Z,33.57
2017-12-28T09:10:05.238Z,19.43
2017-12-28T09:12:33.069Z,21.17
2017-12-28T09:15:00.886Z,20.27
2017-12-28T09:17:28.708Z,32.60
2017-12-28T09:19:57.284Z,22.83
2017-12-28T09:22:25.874Z,21.70
2017-12-28T09:24:54.523Z,24.77
2017-12-28T09:27:22.448Z,21.70
2017-12-28T09:29:50.405Z,19.77
2017-12-28T09:32:18.251Z,32.70
2017-12-28T09:34:46.096Z,24.10
2017-12-28T09:37:14.807Z,26.07
2017-12-28T09:39:42.667Z,21.17
2017-12-28T09:42:10.539Z,25.47
2017-12-28T09:44:39.117Z,27.23
2017-12-28T09:47:06.935Z,17.13
2017-12-28T09:49:34.748Z,24.67
2017-12-28T09:52:02.625Z,28.63
2017-12-28T09:54:31.219Z,34.37
2017-12-28T09:56:59.784Z,22.77
2017-12-28T09:59:28.370Z,26.93
2017-12-28T10:01:56.251Z,17.97
2017-12-28T10:04:24.844Z,20.30
2017-12-28T10:06:52.800Z,26.83
2017-12-28T10:09:21.355Z,15.03
2017-12-28T10:11:49.211Z,21.87
2017-12-28T10:14:17.065Z,11.47
2017-12-28T10:16:44.948Z,19.60
2017-12-28T10:19:12.811Z,33.70
2017-12-28T10:21:40.639Z,14.20
2017-12-28T10:24:08.452Z,14.80
2017-12-28T10:26:36.302Z,24.80
2017-12-28T10:29:04.136Z,23.63
2017-12-28T10:31:31.932Z,14.27
2017-12-28T10:33:59.776Z,27.67
2017-12-28T10:36:27.680Z,19.33
2017-12-28T10:38:55.495Z,20.03
2017-12-28T10:41:23.324Z,15.20
2017-12-28T10:43:52.048Z,20.40
2017-12-28T10:46:19.864Z,25.33
2017-12-28T10:48:47.675Z,20.47
2017-12-28T10:51:15.536Z,11.90
2017-12-28T10:53:43.399Z,19.60
2017-12-28T10:56:11.276Z,16.83
2017-12-28T10:58:39.148Z,19.50
2017-12-28T11:01:07.001Z,13.93
2017-12-28T11:03:34.863Z,26.63
2017-12-28T11:06:02.691Z,13.67
2017-12-28T11:08:30.500Z,25.63
2017-12-28T11:10:58.302Z,20.43
2017-12-28T11:13:26.101Z,26.87
2017-12-28T11:15:54.681Z,23.47
2017-12-28T11:18:23.281Z,16.20
2017-12-28T11:20:51.863Z,19.63
2017-12-28T11:23:19.754Z,19.95
2017-12-28T11:25:47.564Z,17.67
2017-12-28T11:28:15.365Z,16.47
2017-12-28T11:30:43.244Z,15.10
2017-12-28T11:33:11.071Z,21.37
2017-12-28T11:35:38.877Z,25.00
2017-12-28T11:38:06.676Z,22.10
2017-12-28T11:40:34.500Z,22.33
2017-12-28T11:43:02.295Z,16.60
2017-12-28T11:45:30.083Z,27.23
2017-12-28T11:47:57.994Z,30.37
2017-12-28T11:50:31.462Z,13.10
2017-12-28T11:53:04.986Z,24.20
2017-12-28T11:55:32.871Z,21.07
2017-12-28T11:58:00.778Z,18.27
2017-12-28T12:00:47.371Z,16.97
2017-12-28T12:03:33.835Z,23.87
2017-12-28T12:06:01.709Z,18.23
2017-12-28T12:08:32.388Z,16.90
2017-12-28T12:11:00.207Z,14.03
2017-12-28T12:13:28.027Z,11.33
2017-12-28T12:15:57.406Z,25.63
2017-12-28T12:18:25.344Z,16.00
2017-12-28T12:20:53.143Z,21.97
2017-12-28T12:23:20.968Z,21.83
2017-12-28T12:25:48.819Z,26.20
2017-12-28T12:28:16.636Z,12.77
2017-12-28T12:30:44.479Z,22.30
2017-12-28T12:33:12.311Z,26.30
2017-12-28T12:35:40.124Z,18.40
2017-12-28T12:38:07.927Z,19.07
2017-12-28T12:40:36.507Z,16.13
2017-12-28T12:43:05.059Z,22.33
2017-12-28T12:45:32.862Z,17.33
2017-12-28T12:48:01.426Z,20.03
2017-12-28T12:50:29.313Z,23.87
2017-12-28T12:52:57.183Z,30.07
2017-12-28T12:55:25.756Z,21.13
2017-12-28T12:57:54.328Z,19.50
2017-12-28T13:00:22.189Z,19.07
2017-12-28T13:02:50.042Z,28.70
2017-12-28T13:05:17.907Z,24.10
2017-12-28T13:07:45.773Z,15.43
2017-12-28T13:10:13.608Z,25.23
2017-12-28T13:12:41.486Z,22.13
2017-12-28T13:15:09.454Z,25.53
2017-12-28T13:17:37.260Z,35.93
2017-12-28T13:20:05.823Z,23.73
2017-12-28T13:22:33.706Z,21.03
2017-12-28T13:25:02.321Z,28.70
2017-12-28T13:27:30.135Z,24.97
2017-12-28T13:29:57.966Z,18.27
2017-12-28T13:32:25.843Z,24.33
2017-12-28T13:34:53.769Z,21.70
2017-12-28T13:37:21.625Z,27.30
2017-12-28T13:39:50.211Z,21.03
2017-12-28T13:42:18.827Z,23.63
2017-12-28T13:44:47.052Z,17.20
2017-12-28T13:47:15.694Z,18.10
2017-12-28T13:49:49.626Z,23.10
2017-12-28T13:52:18.188Z,26.93
2017-12-28T13:54:46.013Z,24.60
2017-12-28T13:57:15.566Z,21.47
2017-12-28T13:59:44.151Z,16.00
2017-12-28T14:02:11.976Z,17.67
2017-12-28T14:04:40.607Z,28.73
2017-12-28T14:07:08.433Z,11.17
2017-12-28T14:09:36.249Z,21.37
2017-12-28T14:12:04.644Z,20.33
2017-12-28T14:14:35.010Z,23.43
2017-12-28T14:17:02.812Z,15.27
2017-12-28T14:19:30.652Z,16.53
2017-12-28T14:21:58.491Z,19.50
2017-12-28T14:24:27.091Z,18.73
2017-12-28T14:26:55.003Z,23.30
2017-12-28T14:29:22.898Z,23.77
2017-12-28T14:31:51.511Z,24.10
2017-12-28T14:34:19.353Z,19.37
2017-12-28T14:36:47.927Z,23.37
2017-12-28T14:39:16.540Z,13.40
2017-12-28T14:41:44.469Z,19.07
2017-12-28T14:44:12.291Z,25.43
2017-12-28T14:46:40.142Z,24.33
2017-12-28T14:49:07.919Z,19.67
2017-12-28T14:51:35.785Z,20.43
2017-12-28T14:54:03.602Z,19.00
2017-12-28T14:56:32.142Z,33.30
2017-12-28T14:58:59.976Z,19.93
2017-12-28T15:01:27.848Z,25.23
2017-12-28T15:03:55.703Z,26.95
2017-12-28T15:06:24.346Z,24.93
2017-12-28T15:08:52.183Z,20.97
2017-12-28T15:11:20.019Z,36.47
2017-12-28T15:13:47.910Z,24.27
2017-12-28T15:16:15.751Z,20.70
2017-12-28T15:18:43.586Z,28.07
2017-12-28T15:21:12.178Z,26.20
2017-12-28T15:23:39.996Z,33.17
2017-12-28T15:26:07.856Z,25.47
2017-12-28T15:28:35.746Z,29.70
2017-12-28T15:31:03.585Z,46.00
2017-12-28T15:33:31.585Z,31.13
2017-12-28T15:35:59.404Z,29.50
2017-12-28T15:38:27.230Z,32.23
2017-12-28T15:40:55.072Z,22.67
2017-12-28T15:43:22.939Z,17.47
2017-12-28T15:45:50.793Z,28.80
2017-12-28T15:48:20.348Z,25.03
2017-12-28T15:50:48.934Z,24.60
2017-12-28T15:53:17.487Z,16.63
2017-12-28T15:55:45.360Z,21.43
2017-12-28T15:58:13.170Z,24.40
2017-12-28T16:00:41.003Z,22.63
2017-12-28T16:03:08.787Z,19.50
2017-12-28T16:05:37.437Z,30.77
2017-12-28T16:08:05.233Z,30.70
2017-12-28T16:10:33.810Z,25.60
2017-12-28T16:13:02.392Z,22.63
2017-12-28T16:15:30.217Z,20.70
2017-12-28T16:17:58.016Z,31.30
2017-12-28T16:20:25.903Z,25.50
2017-12-28T16:22:53.796Z,27.60
2017-12-28T16:25:21.589Z,30.00
2017-12-28T16:27:49.410Z,23.40
2017-12-28T16:30:17.223Z,18.53
2017-12-28T16:32:45.132Z,24.13
2017-12-28T16:35:13.042Z,25.60
2017-12-28T16:37:40.860Z,22.60
2017-12-28T16:40:09.426Z,22.57
2017-12-28T16:42:37.365Z,34.63
2017-12-28T16:45:05.186Z,26.13
2017-12-28T16:47:33.056Z,28.70
2017-12-28T16:50:00.847Z,25.93
2017-12-28T16:52:28.636Z,29.40
2017-12-28T16:54:56.511Z,29.63
2017-12-28T16:57:24.335Z,29.07
2017-12-28T16:59:52.143Z,30.10
2017-12-28T17:02:20.000Z,29.33
2017-12-28T17:04:47.773Z,24.00
2017-12-28T17:07:15.570Z,19.93
2017-12-28T17:09:43.384Z,31.23
2017-12-28T17:12:11.261Z,28.03
2017-12-28T17:14:39.088Z,22.93
2017-12-28T17:17:06.924Z,28.23
2017-12-28T17:19:35.539Z,17.50
2017-12-28T17:22:03.426Z,27.07
2017-12-28T17:24:31.205Z,40.67
2017-12-28T17:26:59.016Z,28.93
2017-12-28T17:29:26.816Z,37.17
2017-12-28T17:31:54.702Z,29.90
2017-12-28T17:34:22.602Z,34.60
2017-12-28T17:36:51.225Z,34.03
2017-12-28T17:39:19.094Z,30.87
2017-12-28T17:41:46.906Z,41.63
2017-12-28T17:44:15.954Z,27.73
2017-12-28T17:46:44.608Z,24.30
2017-12-28T17:49:12.411Z,26.40
2017-12-28T17:51:40.227Z,35.40
2017-12-28T17:54:08.019Z,33.13
2017-12-28T17:56:35.836Z,44.23
2017-12-28T17:59:03.674Z,33.13
2017-12-28T18:01:31.476Z,29.00
2017-12-28T18:04:00.092Z,29.83
2017-12-28T18:06:27.988Z,42.83
2017-12-28T18:08:55.800Z,37.50
2017-12-28T18:11:24.420Z,27.40
2017-12-28T18:13:52.228Z,46.40
2017-12-28T18:16:20.043Z,26.33
2017-12-28T18:18:47.879Z,30.57
2017-12-28T18:21:16.551Z,35.97
2017-12-28T18:23:45.105Z,35.17
2017-12-28T18:26:12.941Z,46.40
2017-12-28T18:28:40.768Z,29.60
2017-12-28T18:31:09.381Z,30.97
2017-12-28T18:33:37.266Z,36.10
2017-12-28T18:36:05.094Z,35.93
2017-12-28T18:38:33.728Z,32.63
2017-12-28T18:41:01.536Z,28.80
2017-12-28T18:43:29.400Z,33.03
2017-12-28T18:45:57.247Z,32.07
2017-12-28T18:48:25.044Z,29.27
2017-12-28T18:50:53.656Z,24.50
2017-12-28T18:53:21.481Z,35.77
2017-12-28T18:55:50.166Z,26.17
2017-12-28T18:58:18.733Z,27.30
2017-12-28T19:00:46.594Z,29.33
2017-12-28T19:03:14.391Z,31.20
2017-12-28T19:05:42.205Z,38.53
2017-12-28T19:08:09.982Z,21.67
2017-12-28T19:10:37.813Z,28.00
2017-12-28T19:13:05.632Z,19.13
2017-12-28T19:15:33.461Z,30.57
2017-12-28T19:18:01.376Z,23.33
2017-12-28T19:20:29.269Z,15.80
2017-12-28T19:22:57.047Z,29.83
2017-12-28T19:25:24.883Z,10.00
2017-12-28T19:27:52.702Z,8.13
2017-12-28T19:30:20.478Z,9.00
2017-12-28T19:32:48.343Z,8.60
2017-12-28T19:35:16.361Z,22.50
2017-12-28T19:37:44.262Z,17.70
2017-12-28T19:40:12.093Z,21.27
2017-12-28T19:42:39.900Z,36.57
2017-12-28T19:45:07.679Z,41.07
2017-12-28T19:47:35.475Z,43.27
2017-12-28T19:50:03.263Z,33.90
2017-12-28T19:52:31.057Z,29.80
2017-12-28T19:54:59.892Z,38.90
2017-12-28T19:57:27.746Z,59.13
2017-12-28T19:59:56.367Z,43.70
2017-12-28T20:02:24.216Z,29.87
2017-12-28T20:04:52.060Z,35.77
2017-12-28T20:07:19.928Z,23.80
2017-12-28T20:09:48.527Z,23.20
2017-12-28T20:12:16.410Z,20.10
2017-12-28T20:14:44.281Z,13.47
2017-12-28T20:17:12.112Z,19.40
2017-12-28T20:19:40.679Z,16.27
2017-12-28T20:22:08.482Z,20.77
2017-12-28T20:24:36.371Z,19.87
2017-12-28T20:27:04.234Z,15.60
2017-12-28T20:29:32.049Z,19.00
2017-12-28T20:32:00.687Z,30.00
2017-12-28T20:34:28.543Z,40.77
2017-12-28T20:36:56.417Z,30.83
2017-12-28T20:39:24.223Z,28.60
2017-12-28T20:41:52.064Z,52.77
2017-12-28T20:44:19.881Z,40.40
2017-12-28T20:46:47.910Z,37.87
2017-12-28T20:49:15.746Z,36.20
2017-12-28T20:51:43.624Z,52.53
2017-12-28T20:54:11.553Z,32.73
2017-12-28T20:56:39.356Z,38.20
2017-12-28T20:59:07.226Z,38.40
2017-12-28T21:01:35.895Z,41.43
2017-12-28T21:04:03.772Z,33.53
2017-12-28T21:06:31.677Z,43.00
2017-12-28T21:08:59.484Z,47.27
2017-12-28T21:11:27.310Z,35.53
2017-12-28T21:13:55.966Z,45.37
2017-12-28T21:16:23.793Z,34.27
2017-12-28T21:18:51.743Z,44.43
2017-12-28T21:21:19.623Z,27.10
2017-12-28T21:23:47.413Z,20.50
2017-12-28T21:26:15.276Z,25.30
2017-12-28T21:28:43.097Z,16.87
2017-12-28T21:31:11.743Z,17.77
2017-12-28T21:33:39.549Z,26.87
2017-12-28T21:36:07.464Z,23.23
2017-12-28T21:38:35.344Z,24.13
2017-12-28T21:41:03.146Z,29.20
2017-12-28T21:43:31.729Z,50.10
2017-12-28T21:46:00.339Z,35.27
2017-12-28T21:48:28.175Z,36.50
2017-12-28T21:50:56.745Z,32.40
2017-12-28T21:53:24.600Z,37.53
2017-12-28T21:55:54.449Z,32.10
2017-12-28T21:58:23.029Z,29.70
2017-12-28T22:00:51.694Z,19.63
2017-12-28T22:03:20.324Z,12.23
2017-12-28T22:05:48.159Z,14.07
2017-12-28T22:08:16.768Z,20.13
2017-12-28T22:10:44.652Z,19.40
2017-12-28T22:13:12.439Z,18.03
2017-12-28T22:15:43.173Z,17.20
2017-12-28T22:18:11.029Z,16.10
2017-12-28T22:20:38.810Z,13.70
2017-12-28T22:23:06.633Z,9.53
2017-12-28T22:25:34.423Z,16.50
2017-12-28T22:28:02.299Z,8.00
2017-12-28T22:30:30.159Z,4.87
2017-12-28T22:32:57.975Z,3.77
2017-12-28T22:35:25.861Z,7.13
2017-12-28T22:37:53.672Z,3.47
2017-12-28T22:40:21.538Z,8.60
2017-12-28T22:42:50.108Z,24.47
2017-12-28T22:45:17.915Z,29.30
2017-12-28T22:47:46.493Z,34.67
2017-12-28T22:50:15.124Z,31.57
2017-12-28T22:52:42.935Z,38.13
2017-12-28T22:55:11.600Z,26.83
2017-12-28T22:57:39.435Z,43.90
2017-12-28T23:00:07.268Z,38.30
2017-12-28T23:02:35.077Z,35.37
2017-12-28T23:05:02.901Z,31.30
2017-12-28T23:07:30.734Z,35.50
2017-12-28T23:09:59.392Z,27.53
2017-12-28T23:12:27.183Z,32.30
2017-12-28T23:14:55.017Z,40.47
2017-12-28T23:17:22.879Z,22.17
2017-12-28T23:19:50.774Z,24.53
2017-12-28T23:22:18.636Z,28.47
2017-12-28T23:24:46.500Z,28.30
2017-12-28T23:27:14.287Z,38.87
2017-12-28T23:29:42.873Z,31.13
2017-12-28T23:32:11.469Z,32.33
2017-12-28T23:34:40.028Z,24.97
2017-12-28T23:37:07.808Z,29.17
2017-12-28T23:39:36.479Z,22.43
2017-12-28T23:42:06.037Z,21.27
2017-12-28T23:44:33.889Z,20.53
2017-12-28T23:47:01.743Z,18.03
2017-12-28T23:49:29.595Z,18.43
2017-12-28T23:51:58.191Z,16.03
2017-12-28T23:54:26.013Z,12.47
2017-12-28T23:56:53.936Z,10.00
2017-12-28T23:59:21.837Z,11.53
